sensor_id;sensor_type;location;lat;lon;timestamp;P1;durP1;ratioP1;P2;durP2;ratioP2
70150;SDS011;57517;43.562;19.540;2022-12-29T00:01:34;38.05;;;29.20;;
70150;SDS011;57517;43.562;19.540;2022-12-29T00:04:01;47.92;;;34.50;;
70150;SDS011;57517;43.562;19.540;2022-12-29T00:06:27;47.05;;;33.45;;
70150;SDS011;57517;43.562;19.540;2022-12-29T00:08:53;46.25;;;34.70;;
70150;SDS011;57517;43.562;19.540;2022-12-29T00:11:20;40.15;;;31.45;;
70150;SDS011;57517;43.562;19.540;2022-12-29T00:13:47;44.15;;;32.17;;
70150;SDS011;57517;43.562;19.540;2022-12-29T00:16:32;43.88;;;33.55;;
70150;SDS011;57517;43.562;19.540;2022-12-29T00:18:58;45.85;;;34.20;;
70150;SDS011;57517;43.562;19.540;2022-12-29T00:21:25;42.88;;;31.33;;
70150;SDS011;57517;43.562;19.540;2022-12-29T00:24:11;41.88;;;29.60;;
70150;SDS011;57517;43.562;19.540;2022-12-29T00:29:46;42.22;;;31.48;;
70150;SDS011;57517;43.562;19.540;2022-12-29T00:32:31;44.97;;;30.38;;
70150;SDS011;57517;43.562;19.540;2022-12-29T00:35:26;42.08;;;28.85;;
70150;SDS011;57517;43.562;19.540;2022-12-29T00:37:55;37.85;;;27.20;;
70150;SDS011;57517;43.562;19.540;2022-12-29T00:40:42;38.78;;;26.67;;
70150;SDS011;57517;43.562;19.540;2022-12-29T00:43:26;39.87;;;29.20;;
70150;SDS011;57517;43.562;19.540;2022-12-29T00:46:10;38.15;;;26.40;;
70150;SDS011;57517;43.562;19.540;2022-12-29T00:48:36;36.65;;;25.92;;
70150;SDS011;57517;43.562;19.540;2022-12-29T00:51:20;30.25;;;23.00;;
70150;SDS011;57517;43.562;19.540;2022-12-29T00:53:45;29.48;;;23.23;;
70150;SDS011;57517;43.562;19.540;2022-12-29T00:56:11;34.20;;;24.65;;
70150;SDS011;57517;43.562;19.540;2022-12-29T00:58:37;34.58;;;25.02;;
70150;SDS011;57517;43.562;19.540;2022-12-29T01:01:03;27.98;;;21.20;;
70150;SDS011;57517;43.562;19.540;2022-12-29T01:03:31;26.35;;;19.23;;
70150;SDS011;57517;43.562;19.540;2022-12-29T01:06:00;28.17;;;20.70;;
70150;SDS011;57517;43.562;19.540;2022-12-29T01:08:29;37.03;;;27.95;;
70150;SDS011;57517;43.562;19.540;2022-12-29T01:11:03;42.30;;;29.48;;
70150;SDS011;57517;43.562;19.540;2022-12-29T01:13:33;32.92;;;23.10;;
70150;SDS011;57517;43.562;19.540;2022-12-29T01:15:59;29.75;;;20.02;;
70150;SDS011;57517;43.562;19.540;2022-12-29T01:18:25;27.10;;;18.33;;
70150;SDS011;57517;43.562;19.540;2022-12-29T01:20:51;25.35;;;19.23;;
70150;SDS011;57517;43.562;19.540;2022-12-29T01:23:22;30.63;;;20.15;;
70150;SDS011;57517;43.562;19.540;2022-12-29T01:25:48;30.98;;;19.08;;
70150;SDS011;57517;43.562;19.540;2022-12-29T01:28:14;28.55;;;19.13;;
70150;SDS011;57517;43.562;19.540;2022-12-29T01:30:40;30.77;;;19.88;;
70150;SDS011;57517;43.562;19.540;2022-12-29T01:33:05;26.75;;;19.83;;
70150;SDS011;57517;43.562;19.540;2022-12-29T01:35:31;31.67;;;20.23;;
70150;SDS011;57517;43.562;19.540;2022-12-29T01:37:57;32.10;;;20.58;;
70150;SDS011;57517;43.562;19.540;2022-12-29T01:40:23;36.88;;;22.17;;
70150;SDS011;57517;43.562;19.540;2022-12-29T01:42:49;30.75;;;21.58;;
70150;SDS011;57517;43.562;19.540;2022-12-29T01:45:16;37.25;;;23.05;;
70150;SDS011;57517;43.562;19.540;2022-12-29T01:50:39;33.08;;;21.13;;
70150;SDS011;57517;43.562;19.540;2022-12-29T01:53:18;32.35;;;22.70;;
70150;SDS011;57517;43.562;19.540;2022-12-29T01:55:54;30.95;;;21.10;;
70150;SDS011;57517;43.562;19.540;2022-12-29T01:58:23;32.83;;;22.23;;
70150;SDS011;57517;43.562;19.540;2022-12-29T02:00:52;37.65;;;25.30;;
70150;SDS011;57517;43.562;19.540;2022-12-29T02:03:18;37.10;;;25.70;;
70150;SDS011;57517;43.562;19.540;2022-12-29T02:05:54;40.88;;;26.75;;
70150;SDS011;57517;43.562;19.540;2022-12-29T02:08:25;37.60;;;25.73;;
70150;SDS011;57517;43.562;19.540;2022-12-29T02:10:53;41.75;;;27.10;;
70150;SDS011;57517;43.562;19.540;2022-12-29T02:13:20;40.53;;;24.92;;
70150;SDS011;57517;43.562;19.540;2022-12-29T02:21:39;52.03;;;33.13;;
70150;SDS011;57517;43.562;19.540;2022-12-29T02:35:44;38.05;;;27.00;;
70150;SDS011;57517;43.562;19.540;2022-12-29T02:46:31;37.95;;;24.50;;
70150;SDS011;57517;43.562;19.540;2022-12-29T02:52:25;39.22;;;24.25;;
70150;SDS011;57517;43.562;19.540;2022-12-29T02:55:10;37.38;;;24.77;;
70150;SDS011;57517;43.562;19.540;2022-12-29T02:57:36;32.70;;;24.33;;
70150;SDS011;57517;43.562;19.540;2022-12-29T03:00:04;37.65;;;24.20;;
70150;SDS011;57517;43.562;19.540;2022-12-29T03:05:39;38.67;;;23.55;;
70150;SDS011;57517;43.562;19.540;2022-12-29T03:10:35;40.05;;;26.40;;
70150;SDS011;57517;43.562;19.540;2022-12-29T03:16:45;32.05;;;22.70;;
70150;SDS011;57517;43.562;19.540;2022-12-29T03:21:53;35.25;;;22.60;;
70150;SDS011;57517;43.562;19.540;2022-12-29T03:24:48;30.38;;;22.73;;
70150;SDS011;57517;43.562;19.540;2022-12-29T03:27:18;31.92;;;22.20;;
70150;SDS011;57517;43.562;19.540;2022-12-29T03:29:49;29.95;;;20.98;;
70150;SDS011;57517;43.562;19.540;2022-12-29T03:32:19;34.55;;;22.92;;
70150;SDS011;57517;43.562;19.540;2022-12-29T03:34:48;31.52;;;21.50;;
70150;SDS011;57517;43.562;19.540;2022-12-29T03:37:17;33.13;;;21.58;;
70150;SDS011;57517;43.562;19.540;2022-12-29T03:39:47;31.08;;;22.48;;
70150;SDS011;57517;43.562;19.540;2022-12-29T03:42:14;32.65;;;22.92;;
70150;SDS011;57517;43.562;19.540;2022-12-29T03:44:45;30.73;;;22.02;;
70150;SDS011;57517;43.562;19.540;2022-12-29T03:47:11;30.08;;;22.65;;
70150;SDS011;57517;43.562;19.540;2022-12-29T03:49:39;36.28;;;21.60;;
70150;SDS011;57517;43.562;19.540;2022-12-29T03:52:05;23.38;;;16.23;;
70150;SDS011;57517;43.562;19.540;2022-12-29T03:54:31;23.83;;;16.90;;
70150;SDS011;57517;43.562;19.540;2022-12-29T03:56:57;23.85;;;17.50;;
70150;SDS011;57517;43.562;19.540;2022-12-29T03:59:23;27.33;;;17.15;;
70150;SDS011;57517;43.562;19.540;2022-12-29T04:01:49;25.88;;;18.13;;
70150;SDS011;57517;43.562;19.540;2022-12-29T04:04:15;23.65;;;16.58;;
70150;SDS011;57517;43.562;19.540;2022-12-29T04:06:41;22.02;;;17.05;;
70150;SDS011;57517;43.562;19.540;2022-12-29T04:09:06;18.08;;;15.40;;
70150;SDS011;57517;43.562;19.540;2022-12-29T04:11:34;20.50;;;15.45;;
70150;SDS011;57517;43.562;19.540;2022-12-29T04:13:59;22.80;;;16.13;;
70150;SDS011;57517;43.562;19.540;2022-12-29T04:16:25;22.33;;;15.90;;
70150;SDS011;57517;43.562;19.540;2022-12-29T04:18:51;23.38;;;14.70;;
70150;SDS011;57517;43.562;19.540;2022-12-29T04:21:17;18.15;;;12.15;;
70150;SDS011;57517;43.562;19.540;2022-12-29T04:23:42;16.10;;;11.75;;
70150;SDS011;57517;43.562;19.540;2022-12-29T04:26:08;21.35;;;13.38;;
70150;SDS011;57517;43.562;19.540;2022-12-29T04:28:35;16.48;;;11.95;;
70150;SDS011;57517;43.562;19.540;2022-12-29T04:31:02;14.93;;;11.23;;
70150;SDS011;57517;43.562;19.540;2022-12-29T04:33:28;17.25;;;13.02;;
70150;SDS011;57517;43.562;19.540;2022-12-29T04:35:54;21.13;;;13.15;;
70150;SDS011;57517;43.562;19.540;2022-12-29T04:38:21;18.67;;;13.65;;
70150;SDS011;57517;43.562;19.540;2022-12-29T04:40:48;18.42;;;14.60;;
70150;SDS011;57517;43.562;19.540;2022-12-29T04:43:14;20.65;;;13.95;;
70150;SDS011;57517;43.562;19.540;2022-12-29T04:45:44;21.42;;;13.85;;
70150;SDS011;57517;43.562;19.540;2022-12-29T04:48:11;17.23;;;11.93;;
70150;SDS011;57517;43.562;19.540;2022-12-29T04:50:37;18.58;;;13.30;;
70150;SDS011;57517;43.562;19.540;2022-12-29T04:53:04;20.55;;;14.30;;
70150;SDS011;57517;43.562;19.540;2022-12-29T04:55:30;19.00;;;12.52;;
70150;SDS011;57517;43.562;19.540;2022-12-29T04:57:55;16.48;;;13.13;;
70150;SDS011;57517;43.562;19.540;2022-12-29T05:00:21;18.25;;;13.25;;
70150;SDS011;57517;43.562;19.540;2022-12-29T05:02:47;19.05;;;13.80;;
70150;SDS011;57517;43.562;19.540;2022-12-29T05:05:13;20.40;;;14.00;;
70150;SDS011;57517;43.562;19.540;2022-12-29T05:07:39;19.88;;;14.35;;
70150;SDS011;57517;43.562;19.540;2022-12-29T05:10:04;19.98;;;13.32;;
70150;SDS011;57517;43.562;19.540;2022-12-29T05:12:31;20.48;;;13.77;;
70150;SDS011;57517;43.562;19.540;2022-12-29T05:14:58;18.55;;;12.25;;
70150;SDS011;57517;43.562;19.540;2022-12-29T05:20:42;20.08;;;12.88;;
70150;SDS011;57517;43.562;19.540;2022-12-29T05:23:08;20.85;;;14.13;;
70150;SDS011;57517;43.562;19.540;2022-12-29T05:25:34;16.23;;;12.27;;
70150;SDS011;57517;43.562;19.540;2022-12-29T05:28:00;17.73;;;12.13;;
70150;SDS011;57517;43.562;19.540;2022-12-29T05:30:26;18.83;;;13.55;;
70150;SDS011;57517;43.562;19.540;2022-12-29T05:32:51;18.15;;;12.98;;
70150;SDS011;57517;43.562;19.540;2022-12-29T05:35:17;20.95;;;14.20;;
70150;SDS011;57517;43.562;19.540;2022-12-29T05:37:43;20.15;;;13.57;;
70150;SDS011;57517;43.562;19.540;2022-12-29T05:40:09;16.10;;;12.90;;
70150;SDS011;57517;43.562;19.540;2022-12-29T05:42:35;24.38;;;12.70;;
70150;SDS011;57517;43.562;19.540;2022-12-29T05:45:00;21.35;;;13.95;;
70150;SDS011;57517;43.562;19.540;2022-12-29T05:47:26;23.33;;;13.98;;
70150;SDS011;57517;43.562;19.540;2022-12-29T05:49:52;19.30;;;13.52;;
70150;SDS011;57517;43.562;19.540;2022-12-29T05:55:08;20.45;;;14.52;;
70150;SDS011;57517;43.562;19.540;2022-12-29T05:57:34;19.90;;;14.60;;
70150;SDS011;57517;43.562;19.540;2022-12-29T06:00:00;21.98;;;14.77;;
70150;SDS011;57517;43.562;19.540;2022-12-29T06:02:25;20.63;;;14.27;;
70150;SDS011;57517;43.562;19.540;2022-12-29T06:04:51;19.98;;;14.68;;
70150;SDS011;57517;43.562;19.540;2022-12-29T06:07:17;19.50;;;12.70;;
70150;SDS011;57517;43.562;19.540;2022-12-29T06:09:42;18.90;;;12.07;;
70150;SDS011;57517;43.562;19.540;2022-12-29T06:12:08;18.83;;;13.32;;
70150;SDS011;57517;43.562;19.540;2022-12-29T06:14:34;17.33;;;12.07;;
70150;SDS011;57517;43.562;19.540;2022-12-29T06:16:59;16.65;;;11.05;;
70150;SDS011;57517;43.562;19.540;2022-12-29T06:19:25;21.00;;;13.48;;
70150;SDS011;57517;43.562;19.540;2022-12-29T06:21:51;16.55;;;12.10;;
70150;SDS011;57517;43.562;19.540;2022-12-29T06:24:18;17.98;;;11.88;;
70150;SDS011;57517;43.562;19.540;2022-12-29T06:26:44;16.45;;;11.90;;
70150;SDS011;57517;43.562;19.540;2022-12-29T06:29:09;17.02;;;11.57;;
70150;SDS011;57517;43.562;19.540;2022-12-29T06:31:35;18.70;;;11.85;;
70150;SDS011;57517;43.562;19.540;2022-12-29T06:34:01;18.27;;;12.50;;
70150;SDS011;57517;43.562;19.540;2022-12-29T06:36:27;17.90;;;13.07;;
70150;SDS011;57517;43.562;19.540;2022-12-29T06:38:53;15.30;;;11.38;;
70150;SDS011;57517;43.562;19.540;2022-12-29T06:41:20;18.73;;;12.30;;
70150;SDS011;57517;43.562;19.540;2022-12-29T06:43:45;17.00;;;11.80;;
70150;SDS011;57517;43.562;19.540;2022-12-29T06:46:11;17.95;;;11.90;;
70150;SDS011;57517;43.562;19.540;2022-12-29T06:48:37;18.50;;;12.63;;
70150;SDS011;57517;43.562;19.540;2022-12-29T06:51:03;19.17;;;11.80;;
70150;SDS011;57517;43.562;19.540;2022-12-29T06:53:28;17.25;;;11.25;;
70150;SDS011;57517;43.562;19.540;2022-12-29T06:55:54;17.23;;;11.38;;
70150;SDS011;57517;43.562;19.540;2022-12-29T06:58:21;35.72;;;23.02;;
70150;SDS011;57517;43.562;19.540;2022-12-29T07:00:47;15.57;;;11.18;;
70150;SDS011;57517;43.562;19.540;2022-12-29T07:03:13;15.75;;;11.48;;
70150;SDS011;57517;43.562;19.540;2022-12-29T07:05:39;22.95;;;15.82;;
70150;SDS011;57517;43.562;19.540;2022-12-29T07:08:04;15.20;;;10.75;;
70150;SDS011;57517;43.562;19.540;2022-12-29T07:10:31;14.23;;;10.70;;
70150;SDS011;57517;43.562;19.540;2022-12-29T07:12:56;15.27;;;10.05;;
70150;SDS011;57517;43.562;19.540;2022-12-29T07:15:22;37.58;;;26.67;;
70150;SDS011;57517;43.562;19.540;2022-12-29T07:17:48;155.35;;;127.07;;
70150;SDS011;57517;43.562;19.540;2022-12-29T07:20:14;71.53;;;53.85;;
70150;SDS011;57517;43.562;19.540;2022-12-29T07:22:41;31.08;;;24.17;;
70150;SDS011;57517;43.562;19.540;2022-12-29T07:25:06;19.88;;;13.65;;
70150;SDS011;57517;43.562;19.540;2022-12-29T07:27:33;16.88;;;11.82;;
70150;SDS011;57517;43.562;19.540;2022-12-29T07:29:58;15.88;;;12.68;;
70150;SDS011;57517;43.562;19.540;2022-12-29T07:32:24;17.80;;;11.95;;
70150;SDS011;57517;43.562;19.540;2022-12-29T07:34:50;16.95;;;11.80;;
70150;SDS011;57517;43.562;19.540;2022-12-29T07:37:16;20.10;;;12.43;;
70150;SDS011;57517;43.562;19.540;2022-12-29T07:39:42;18.48;;;10.48;;
70150;SDS011;57517;43.562;19.540;2022-12-29T07:42:08;14.85;;;10.38;;
70150;SDS011;57517;43.562;19.540;2022-12-29T07:44:34;13.70;;;9.77;;
70150;SDS011;57517;43.562;19.540;2022-12-29T07:47:01;14.55;;;10.45;;
70150;SDS011;57517;43.562;19.540;2022-12-29T07:49:27;16.50;;;10.60;;
70150;SDS011;57517;43.562;19.540;2022-12-29T07:51:53;17.27;;;11.68;;
70150;SDS011;57517;43.562;19.540;2022-12-29T07:54:19;19.33;;;12.63;;
70150;SDS011;57517;43.562;19.540;2022-12-29T07:56:45;15.98;;;10.35;;
70150;SDS011;57517;43.562;19.540;2022-12-29T07:59:11;16.73;;;11.73;;
70150;SDS011;57517;43.562;19.540;2022-12-29T08:01:39;28.80;;;23.80;;
70150;SDS011;57517;43.562;19.540;2022-12-29T08:04:05;18.38;;;11.95;;
70150;SDS011;57517;43.562;19.540;2022-12-29T08:06:31;57.10;;;51.00;;
70150;SDS011;57517;43.562;19.540;2022-12-29T08:08:57;20.13;;;15.15;;
70150;SDS011;57517;43.562;19.540;2022-12-29T08:11:23;17.15;;;13.52;;
70150;SDS011;57517;43.562;19.540;2022-12-29T08:13:49;18.15;;;12.63;;
70150;SDS011;57517;43.562;19.540;2022-12-29T08:16:15;19.08;;;13.88;;
70150;SDS011;57517;43.562;19.540;2022-12-29T08:18:41;16.05;;;12.88;;
70150;SDS011;57517;43.562;19.540;2022-12-29T08:21:07;19.30;;;13.52;;
70150;SDS011;57517;43.562;19.540;2022-12-29T08:23:32;15.45;;;11.55;;
70150;SDS011;57517;43.562;19.540;2022-12-29T08:25:59;14.30;;;10.27;;
70150;SDS011;57517;43.562;19.540;2022-12-29T08:28:26;20.23;;;13.15;;
70150;SDS011;57517;43.562;19.540;2022-12-29T08:30:52;17.77;;;14.00;;
70150;SDS011;57517;43.562;19.540;2022-12-29T08:33:18;18.05;;;12.93;;
70150;SDS011;57517;43.562;19.540;2022-12-29T08:35:44;15.70;;;11.65;;
70150;SDS011;57517;43.562;19.540;2022-12-29T08:38:09;17.73;;;12.55;;
70150;SDS011;57517;43.562;19.540;2022-12-29T08:40:36;16.73;;;11.50;;
70150;SDS011;57517;43.562;19.540;2022-12-29T08:43:02;16.38;;;11.85;;
70150;SDS011;57517;43.562;19.540;2022-12-29T08:45:28;17.65;;;11.45;;
70150;SDS011;57517;43.562;19.540;2022-12-29T08:47:53;18.45;;;13.35;;
70150;SDS011;57517;43.562;19.540;2022-12-29T08:50:19;15.18;;;10.70;;
70150;SDS011;57517;43.562;19.540;2022-12-29T08:52:45;17.33;;;11.73;;
70150;SDS011;57517;43.562;19.540;2022-12-29T08:55:11;18.70;;;12.18;;
70150;SDS011;57517;43.562;19.540;2022-12-29T08:57:36;17.38;;;11.27;;
70150;SDS011;57517;43.562;19.540;2022-12-29T09:00:02;13.73;;;10.13;;
70150;SDS011;57517;43.562;19.540;2022-12-29T09:02:29;17.30;;;10.57;;
70150;SDS011;57517;43.562;19.540;2022-12-29T09:04:55;14.18;;;10.77;;
70150;SDS011;57517;43.562;19.540;2022-12-29T09:07:22;16.98;;;11.48;;
70150;SDS011;57517;43.562;19.540;2022-12-29T09:09:48;16.65;;;12.25;;
70150;SDS011;57517;43.562;19.540;2022-12-29T09:12:14;17.75;;;13.13;;
70150;SDS011;57517;43.562;19.540;2022-12-29T09:14:41;20.90;;;14.00;;
70150;SDS011;57517;43.562;19.540;2022-12-29T09:17:07;23.27;;;15.93;;
70150;SDS011;57517;43.562;19.540;2022-12-29T09:19:52;23.00;;;18.73;;
70150;SDS011;57517;43.562;19.540;2022-12-29T09:22:18;27.35;;;20.98;;
70150;SDS011;57517;43.562;19.540;2022-12-29T09:24:43;34.20;;;25.27;;
70150;SDS011;57517;43.562;19.540;2022-12-29T09:27:09;20.17;;;14.23;;
70150;SDS011;57517;43.562;19.540;2022-12-29T09:29:35;16.73;;;11.55;;
70150;SDS011;57517;43.562;19.540;2022-12-29T09:32:00;14.30;;;11.23;;
70150;SDS011;57517;43.562;19.540;2022-12-29T09:34:26;16.40;;;11.48;;
70150;SDS011;57517;43.562;19.540;2022-12-29T09:36:52;17.95;;;10.88;;
70150;SDS011;57517;43.562;19.540;2022-12-29T09:39:18;18.00;;;11.50;;
70150;SDS011;57517;43.562;19.540;2022-12-29T09:47:14;15.73;;;11.00;;
70150;SDS011;57517;43.562;19.540;2022-12-29T09:49:44;16.73;;;12.00;;
70150;SDS011;57517;43.562;19.540;2022-12-29T09:52:25;20.98;;;13.25;;
70150;SDS011;57517;43.562;19.540;2022-12-29T09:55:04;18.42;;;11.55;;
70150;SDS011;57517;43.562;19.540;2022-12-29T09:57:40;15.95;;;11.45;;
70150;SDS011;57517;43.562;19.540;2022-12-29T10:00:18;17.25;;;12.35;;
70150;SDS011;57517;43.562;19.540;2022-12-29T10:02:55;15.85;;;11.05;;
70150;SDS011;57517;43.562;19.540;2022-12-29T10:05:35;15.40;;;11.38;;
70150;SDS011;57517;43.562;19.540;2022-12-29T10:08:11;14.20;;;10.52;;
70150;SDS011;57517;43.562;19.540;2022-12-29T10:16:20;17.45;;;13.00;;
70150;SDS011;57517;43.562;19.540;2022-12-29T10:21:37;20.58;;;11.20;;
70150;SDS011;57517;43.562;19.540;2022-12-29T10:24:16;19.00;;;13.10;;
70150;SDS011;57517;43.562;19.540;2022-12-29T10:26:44;17.75;;;11.40;;
70150;SDS011;57517;43.562;19.540;2022-12-29T10:29:18;17.60;;;11.75;;
70150;SDS011;57517;43.562;19.540;2022-12-29T10:36:59;15.13;;;11.63;;
70150;SDS011;57517;43.562;19.540;2022-12-29T10:39:39;17.80;;;11.75;;
70150;SDS011;57517;43.562;19.540;2022-12-29T10:44:44;20.50;;;12.10;;
70150;SDS011;57517;43.562;19.540;2022-12-29T10:47:14;17.80;;;11.80;;
70150;SDS011;57517;43.562;19.540;2022-12-29T10:49:44;20.95;;;13.18;;
70150;SDS011;57517;43.562;19.540;2022-12-29T10:52:11;15.82;;;12.05;;
70150;SDS011;57517;43.562;19.540;2022-12-29T10:54:59;15.80;;;12.02;;
70150;SDS011;57517;43.562;19.540;2022-12-29T10:57:53;21.92;;;14.80;;
70150;SDS011;57517;43.562;19.540;2022-12-29T11:00:21;39.08;;;25.58;;
70150;SDS011;57517;43.562;19.540;2022-12-29T11:06:05;19.20;;;13.93;;
70150;SDS011;57517;43.562;19.540;2022-12-29T11:08:39;42.95;;;26.30;;
70150;SDS011;57517;43.562;19.540;2022-12-29T11:11:12;34.47;;;21.50;;
70150;SDS011;57517;43.562;19.540;2022-12-29T11:13:50;27.52;;;20.08;;
70150;SDS011;57517;43.562;19.540;2022-12-29T11:16:27;22.40;;;16.67;;
70150;SDS011;57517;43.562;19.540;2022-12-29T11:18:58;24.85;;;19.65;;
70150;SDS011;57517;43.562;19.540;2022-12-29T11:21:31;41.10;;;26.73;;
70150;SDS011;57517;43.562;19.540;2022-12-29T11:23:59;40.13;;;25.98;;
70150;SDS011;57517;43.562;19.540;2022-12-29T11:26:30;36.63;;;24.50;;
70150;SDS011;57517;43.562;19.540;2022-12-29T11:31:42;19.17;;;14.27;;
70150;SDS011;57517;43.562;19.540;2022-12-29T11:34:14;24.33;;;18.55;;
70150;SDS011;57517;43.562;19.540;2022-12-29T11:36:46;22.23;;;14.88;;
70150;SDS011;57517;43.562;19.540;2022-12-29T11:41:53;23.27;;;16.15;;
70150;SDS011;57517;43.562;19.540;2022-12-29T11:44:19;30.45;;;22.17;;
70150;SDS011;57517;43.562;19.540;2022-12-29T11:46:46;32.63;;;25.40;;
70150;SDS011;57517;43.562;19.540;2022-12-29T11:49:19;30.20;;;21.52;;
70150;SDS011;57517;43.562;19.540;2022-12-29T11:51:47;85.60;;;57.42;;
70150;SDS011;57517;43.562;19.540;2022-12-29T11:54:25;59.70;;;43.85;;
70150;SDS011;57517;43.562;19.540;2022-12-29T11:56:57;51.63;;;36.67;;
70150;SDS011;57517;43.562;19.540;2022-12-29T11:59:36;41.78;;;32.53;;
70150;SDS011;57517;43.562;19.540;2022-12-29T12:02:48;34.33;;;25.35;;
70150;SDS011;57517;43.562;19.540;2022-12-29T12:05:02;27.15;;;20.35;;
70150;SDS011;57517;43.562;19.540;2022-12-29T12:07:44;30.98;;;21.77;;
70150;SDS011;57517;43.562;19.540;2022-12-29T12:10:16;25.10;;;19.33;;
70150;SDS011;57517;43.562;19.540;2022-12-29T12:12:53;75.53;;;57.42;;
70150;SDS011;57517;43.562;19.540;2022-12-29T12:15:31;53.30;;;38.83;;
70150;SDS011;57517;43.562;19.540;2022-12-29T12:18:07;38.10;;;30.40;;
70150;SDS011;57517;43.562;19.540;2022-12-29T12:21:03;92.50;;;62.33;;
70150;SDS011;57517;43.562;19.540;2022-12-29T12:27:02;40.03;;;29.48;;
70150;SDS011;57517;43.562;19.540;2022-12-29T12:32:04;31.15;;;23.50;;
70150;SDS011;57517;43.562;19.540;2022-12-29T12:34:38;27.55;;;22.40;;
70150;SDS011;57517;43.562;19.540;2022-12-29T12:48:12;37.20;;;27.88;;
70150;SDS011;57517;43.562;19.540;2022-12-29T12:51:07;30.33;;;23.10;;
70150;SDS011;57517;43.562;19.540;2022-12-29T12:54:11;31.65;;;23.17;;
70150;SDS011;57517;43.562;19.540;2022-12-29T12:57:19;33.78;;;24.67;;
70150;SDS011;57517;43.562;19.540;2022-12-29T13:00:09;57.35;;;37.05;;
70150;SDS011;57517;43.562;19.540;2022-12-29T13:02:51;43.60;;;30.15;;
70150;SDS011;57517;43.562;19.540;2022-12-29T13:20:01;62.83;;;41.97;;
70150;SDS011;57517;43.562;19.540;2022-12-29T13:31:09;49.22;;;39.45;;
70150;SDS011;57517;43.562;19.540;2022-12-29T13:38:51;44.65;;;35.08;;
70150;SDS011;57517;43.562;19.540;2022-12-29T13:44:04;38.65;;;30.95;;
70150;SDS011;57517;43.562;19.540;2022-12-29T13:46:42;39.70;;;29.88;;
70150;SDS011;57517;43.562;19.540;2022-12-29T13:49:16;43.47;;;32.50;;
70150;SDS011;57517;43.562;19.540;2022-12-29T13:51:55;42.65;;;34.38;;
70150;SDS011;57517;43.562;19.540;2022-12-29T13:59:49;57.15;;;43.92;;
70150;SDS011;57517;43.562;19.540;2022-12-29T14:02:33;58.25;;;43.92;;
70150;SDS011;57517;43.562;19.540;2022-12-29T14:07:46;60.28;;;46.28;;
70150;SDS011;57517;43.562;19.540;2022-12-29T14:15:52;52.05;;;39.83;;
70150;SDS011;57517;43.562;19.540;2022-12-29T14:18:25;56.28;;;41.53;;
70150;SDS011;57517;43.562;19.540;2022-12-29T14:28:31;70.22;;;52.00;;
70150;SDS011;57517;43.562;19.540;2022-12-29T14:31:01;77.20;;;54.13;;
70150;SDS011;57517;43.562;19.540;2022-12-29T14:33:32;63.63;;;51.83;;
70150;SDS011;57517;43.562;19.540;2022-12-29T14:36:33;62.95;;;48.80;;
70150;SDS011;57517;43.562;19.540;2022-12-29T14:39:01;62.97;;;46.15;;
70150;SDS011;57517;43.562;19.540;2022-12-29T14:41:35;63.05;;;45.80;;
70150;SDS011;57517;43.562;19.540;2022-12-29T14:46:43;68.18;;;52.13;;
70150;SDS011;57517;43.562;19.540;2022-12-29T14:49:11;69.88;;;53.25;;
70150;SDS011;57517;43.562;19.540;2022-12-29T14:51:41;74.43;;;56.92;;
70150;SDS011;57517;43.562;19.540;2022-12-29T14:57:01;73.38;;;53.53;;
70150;SDS011;57517;43.562;19.540;2022-12-29T14:59:29;72.07;;;54.58;;
70150;SDS011;57517;43.562;19.540;2022-12-29T15:01:58;76.35;;;56.88;;
70150;SDS011;57517;43.562;19.540;2022-12-29T15:04:32;75.22;;;56.55;;
70150;SDS011;57517;43.562;19.540;2022-12-29T15:07:00;68.80;;;52.63;;
70150;SDS011;57517;43.562;19.540;2022-12-29T15:14:58;74.95;;;56.95;;
70150;SDS011;57517;43.562;19.540;2022-12-29T15:19:52;67.53;;;49.25;;
70150;SDS011;57517;43.562;19.540;2022-12-29T15:22:19;63.25;;;45.83;;
70150;SDS011;57517;43.562;19.540;2022-12-29T15:24:45;70.53;;;52.63;;
70150;SDS011;57517;43.562;19.540;2022-12-29T15:27:15;70.22;;;54.50;;
70150;SDS011;57517;43.562;19.540;2022-12-29T15:29:45;83.25;;;59.92;;
70150;SDS011;57517;43.562;19.540;2022-12-29T15:32:16;95.63;;;66.68;;
70150;SDS011;57517;43.562;19.540;2022-12-29T15:34:49;86.75;;;64.18;;
70150;SDS011;57517;43.562;19.540;2022-12-29T15:37:32;77.95;;;58.00;;
70150;SDS011;57517;43.562;19.540;2022-12-29T15:40:00;88.60;;;66.43;;
70150;SDS011;57517;43.562;19.540;2022-12-29T15:42:44;70.32;;;54.25;;
70150;SDS011;57517;43.562;19.540;2022-12-29T15:45:13;60.90;;;45.97;;
70150;SDS011;57517;43.562;19.540;2022-12-29T15:47:41;79.30;;;59.83;;
70150;SDS011;57517;43.562;19.540;2022-12-29T15:50:20;82.82;;;63.83;;
70150;SDS011;57517;43.562;19.540;2022-12-29T15:52:50;82.85;;;62.55;;
70150;SDS011;57517;43.562;19.540;2022-12-29T15:55:32;89.50;;;70.20;;
70150;SDS011;57517;43.562;19.540;2022-12-29T15:58:01;116.00;;;89.78;;
70150;SDS011;57517;43.562;19.540;2022-12-29T16:00:30;110.45;;;84.25;;
70150;SDS011;57517;43.562;19.540;2022-12-29T16:03:00;122.43;;;91.03;;
70150;SDS011;57517;43.562;19.540;2022-12-29T16:05:31;137.98;;;101.25;;
70150;SDS011;57517;43.562;19.540;2022-12-29T16:08:02;132.10;;;98.22;;
70150;SDS011;57517;43.562;19.540;2022-12-29T16:10:32;115.53;;;84.28;;
70150;SDS011;57517;43.562;19.540;2022-12-29T16:13:06;97.18;;;75.15;;
70150;SDS011;57517;43.562;19.540;2022-12-29T16:15:48;109.72;;;78.63;;
70150;SDS011;57517;43.562;19.540;2022-12-29T16:18:23;94.05;;;68.72;;
70150;SDS011;57517;43.562;19.540;2022-12-29T16:20:52;79.25;;;58.17;;
70150;SDS011;57517;43.562;19.540;2022-12-29T16:23:23;72.65;;;52.30;;
70150;SDS011;57517;43.562;19.540;2022-12-29T16:25:52;65.63;;;48.22;;
70150;SDS011;57517;43.562;19.540;2022-12-29T16:28:20;60.17;;;41.53;;
70150;SDS011;57517;43.562;19.540;2022-12-29T16:30:56;53.88;;;40.47;;
70150;SDS011;57517;43.562;19.540;2022-12-29T16:33:46;52.15;;;35.45;;
70150;SDS011;57517;43.562;19.540;2022-12-29T16:41:51;50.03;;;36.53;;
70150;SDS011;57517;43.562;19.540;2022-12-29T16:44:22;54.08;;;36.92;;
70150;SDS011;57517;43.562;19.540;2022-12-29T16:49:44;58.03;;;39.83;;
70150;SDS011;57517;43.562;19.540;2022-12-29T16:52:21;57.47;;;37.87;;
70150;SDS011;57517;43.562;19.540;2022-12-29T16:54:59;62.05;;;42.80;;
70150;SDS011;57517;43.562;19.540;2022-12-29T16:57:33;50.13;;;35.13;;
70150;SDS011;57517;43.562;19.540;2022-12-29T17:00:04;48.08;;;35.58;;
70150;SDS011;57517;43.562;19.540;2022-12-29T17:02:42;53.47;;;40.90;;
70150;SDS011;57517;43.562;19.540;2022-12-29T17:05:12;53.17;;;39.80;;
70150;SDS011;57517;43.562;19.540;2022-12-29T17:07:38;47.45;;;35.55;;
70150;SDS011;57517;43.562;19.540;2022-12-29T17:10:05;63.05;;;43.03;;
70150;SDS011;57517;43.562;19.540;2022-12-29T17:12:30;44.10;;;34.13;;
70150;SDS011;57517;43.562;19.540;2022-12-29T17:15:00;48.63;;;36.78;;
70150;SDS011;57517;43.562;19.540;2022-12-29T17:17:47;49.97;;;38.25;;
70150;SDS011;57517;43.562;19.540;2022-12-29T17:22:45;55.97;;;40.92;;